createdAt,value
2023-04-26T00:01:18.181Z,100844.00
2023-04-26T00:03:44.719Z,100855.78
2023-04-26T00:06:14.005Z,100850.91
2023-04-26T00:08:40.593Z,100846.28
2023-04-26T00:11:06.968Z,100845.69
2023-04-26T00:13:33.325Z,100840.63
2023-04-26T00:15:59.702Z,100841.75
2023-04-26T00:18:26.121Z,100845.63
2023-04-26T00:20:52.487Z,100843.59
2023-04-26T00:23:18.842Z,100846.56
2023-04-26T00:25:45.206Z,100841.41
2023-04-26T00:28:11.571Z,100844.28
2023-04-26T00:30:41.204Z,100858.69
2023-04-26T00:33:07.929Z,100851.09
2023-04-26T00:35:34.364Z,100847.09
2023-04-26T00:38:00.864Z,100849.78
2023-04-26T00:40:27.256Z,100856.84
2023-04-26T00:42:59.957Z,100844.91
2023-04-26T00:45:26.987Z,100846.41
2023-04-26T00:47:53.502Z,100851.97
2023-04-26T00:50:20.499Z,100853.22
2023-04-26T00:52:47.694Z,100843.88
2023-04-26T00:55:14.326Z,100845.81
2023-04-26T00:57:40.866Z,100852.06
2023-04-26T01:00:07.914Z,100852.19
2023-04-26T01:02:34.602Z,100854.97
2023-04-26T01:05:01.089Z,100852.78
2023-04-26T01:07:27.459Z,100858.28
2023-04-26T01:09:55.004Z,100857.44
2023-04-26T01:12:22.935Z,100856.84
2023-04-26T01:14:49.640Z,100859.81
2023-04-26T01:17:16.157Z,100870.97
2023-04-26T01:19:50.224Z,100864.63
2023-04-26T01:22:16.675Z,100874.66
2023-04-26T01:24:46.135Z,100861.53
2023-04-26T01:27:12.898Z,100864.13
2023-04-26T01:29:39.240Z,100877.94
2023-04-26T01:32:05.706Z,100869.16
2023-04-26T01:34:34.397Z,100865.84
2023-04-26T01:37:01.552Z,100877.22
2023-04-26T01:39:28.114Z,100882.94
2023-04-26T01:41:54.492Z,100884.38
2023-04-26T01:44:20.846Z,100884.28
2023-04-26T01:46:47.255Z,100881.34
2023-04-26T01:49:13.783Z,100885.50
2023-04-26T01:51:40.232Z,100881.28
2023-04-26T01:54:06.603Z,100890.56
2023-04-26T01:56:33.041Z,100890.94
2023-04-26T01:58:59.427Z,100889.91
2023-04-26T02:01:25.828Z,100882.47
2023-04-26T02:03:52.875Z,100884.88
2023-04-26T02:06:19.228Z,100881.03
2023-04-26T02:08:45.762Z,100889.78
2023-04-26T02:11:12.130Z,100887.47
2023-04-26T02:13:38.508Z,100887.78
2023-04-26T02:16:05.325Z,100885.66
2023-04-26T02:18:31.724Z,100887.03
2023-04-26T02:20:58.103Z,100894.34
2023-04-26T02:23:24.544Z,100883.06
2023-04-26T02:25:51.028Z,100890.38
2023-04-26T02:28:17.882Z,100892.53
2023-04-26T02:30:44.856Z,100888.03
2023-04-26T02:33:11.578Z,100880.72
2023-04-26T02:35:37.946Z,100887.56
2023-04-26T02:38:04.903Z,100883.75
2023-04-26T02:40:31.377Z,100876.25
2023-04-26T02:42:57.732Z,100880.75
2023-04-26T02:45:24.107Z,100881.53
2023-04-26T02:47:50.494Z,100876.25
2023-04-26T02:50:16.939Z,100878.47
2023-04-26T02:52:43.338Z,100876.91
2023-04-26T02:55:10.043Z,100878.38
2023-04-26T02:57:36.781Z,100881.06
2023-04-26T03:00:05.451Z,100878.28
2023-04-26T03:02:32.400Z,100879.59
2023-04-26T03:04:59.022Z,100879.06
2023-04-26T03:07:25.798Z,100885.56
2023-04-26T03:09:52.220Z,100888.72
2023-04-26T03:12:19.759Z,100884.22
2023-04-26T03:14:46.108Z,100878.25
2023-04-26T03:17:12.452Z,100884.66
2023-04-26T03:19:38.838Z,100894.19
2023-04-26T03:22:05.721Z,100882.75
2023-04-26T03:24:32.675Z,100880.72
2023-04-26T03:27:00.009Z,100889.16
2023-04-26T03:29:26.970Z,100896.22
2023-04-26T03:31:53.424Z,100897.56
2023-04-26T03:34:19.856Z,100899.03
2023-04-26T03:36:46.432Z,100893.66
2023-04-26T03:39:12.825Z,100892.19
2023-04-26T03:41:40.403Z,100894.53
2023-04-26T03:44:07.149Z,100900.59
2023-04-26T03:46:33.684Z,100896.19
2023-04-26T03:49:00.058Z,100903.66
2023-04-26T03:51:28.220Z,100911.56
2023-04-26T03:53:55.632Z,100909.13
2023-04-26T03:56:22.023Z,100905.88
2023-04-26T03:58:48.360Z,100907.44
2023-04-26T04:01:15.553Z,100911.16
2023-04-26T04:03:42.054Z,100910.47
2023-04-26T04:06:08.520Z,100904.19
2023-04-26T04:08:34.991Z,100915.44
2023-04-26T04:11:01.635Z,100914.97
2023-04-26T04:13:27.996Z,100908.25
2023-04-26T04:15:54.440Z,100914.91
2023-04-26T04:18:20.969Z,100915.88
2023-04-26T04:20:47.368Z,100909.84
2023-04-26T04:23:13.779Z,100914.19
2023-04-26T04:25:40.165Z,100927.00
2023-04-26T04:28:06.558Z,100928.13
2023-04-26T04:30:32.942Z,100919.03
2023-04-26T04:33:00.197Z,100915.00
2023-04-26T04:35:28.979Z,100928.16
2023-04-26T04:37:57.031Z,100928.72
2023-04-26T04:40:24.790Z,100927.13
2023-04-26T04:42:51.315Z,100934.69
2023-04-26T04:45:18.026Z,100934.59
2023-04-26T04:47:45.243Z,100933.19
2023-04-26T04:50:11.789Z,100929.16
2023-04-26T04:52:38.166Z,100938.16
2023-04-26T04:55:04.948Z,100938.41
2023-04-26T04:57:32.428Z,100941.06
2023-04-26T04:59:58.828Z,100938.94
2023-04-26T05:02:25.724Z,100938.94
2023-04-26T05:04:52.465Z,100946.38
2023-04-26T05:07:19.041Z,100953.69
2023-04-26T05:09:45.712Z,100961.44
2023-04-26T05:12:12.131Z,100950.88
2023-04-26T05:14:38.519Z,100957.75
2023-04-26T05:17:04.937Z,100963.69
2023-04-26T05:19:31.985Z,100960.44
2023-04-26T05:21:59.123Z,100963.25
2023-04-26T05:24:25.533Z,100968.44
2023-04-26T05:26:51.899Z,100970.91
2023-04-26T05:29:18.708Z,100972.38
2023-04-26T05:31:45.117Z,100974.16
2023-04-26T05:34:11.525Z,100967.94
2023-04-26T05:36:37.928Z,100979.53
2023-04-26T05:39:05.769Z,100976.06
2023-04-26T05:41:32.151Z,100981.56
2023-04-26T05:43:58.532Z,100984.88
2023-04-26T05:46:24.957Z,100981.44
2023-04-26T05:48:51.920Z,100991.31
2023-04-26T05:51:18.338Z,100991.81
2023-04-26T05:53:44.720Z,100985.94
2023-04-26T05:56:11.107Z,100981.41
2023-04-26T05:58:37.601Z,100986.81
2023-04-26T06:01:04.024Z,100985.75
2023-04-26T06:03:31.015Z,100989.97
2023-04-26T06:05:59.481Z,100986.16
2023-04-26T06:08:28.262Z,100993.69
2023-04-26T06:10:54.624Z,100986.22
2023-04-26T06:13:21.025Z,100987.31
2023-04-26T06:15:47.548Z,100996.88
2023-04-26T06:18:13.958Z,100996.88
2023-04-26T06:20:41.038Z,100994.22
2023-04-26T06:23:07.702Z,101005.56
2023-04-26T06:25:34.246Z,101007.06
2023-04-26T06:28:00.934Z,101012.28
2023-04-26T06:30:27.393Z,101014.50
2023-04-26T06:32:54.194Z,101004.91
2023-04-26T06:35:20.625Z,101000.59
2023-04-26T06:37:47.037Z,100999.72
2023-04-26T06:40:15.787Z,100998.78
2023-04-26T06:42:42.210Z,101004.28
2023-04-26T06:45:09.303Z,101002.63
2023-04-26T06:47:35.804Z,101004.34
2023-04-26T06:50:04.657Z,101009.19
2023-04-26T06:52:31.343Z,101011.16
2023-04-26T06:55:00.819Z,101015.50
2023-04-26T06:57:27.175Z,101006.72
2023-04-26T06:59:53.549Z,101007.59
2023-04-26T07:02:20.011Z,101001.63
2023-04-26T07:04:47.022Z,101008.88
2023-04-26T07:07:14.439Z,101009.69
2023-04-26T07:09:41.074Z,101005.25
2023-04-26T07:12:07.769Z,101018.97
2023-04-26T07:14:37.120Z,101006.66
2023-04-26T07:17:06.462Z,101021.34
2023-04-26T07:19:32.933Z,101004.13
2023-04-26T07:21:59.282Z,101009.53
2023-04-26T07:24:25.779Z,101009.59
2023-04-26T07:26:52.347Z,101023.38
2023-04-26T07:29:19.085Z,101011.03
2023-04-26T07:31:45.991Z,101007.75
2023-04-26T07:34:12.360Z,101008.78
2023-04-26T07:36:39.162Z,101029.44
2023-04-26T07:39:06.445Z,101033.47
2023-04-26T07:41:32.801Z,101027.13
2023-04-26T07:43:59.182Z,101031.97
2023-04-26T07:46:25.607Z,101025.97
2023-04-26T07:48:51.990Z,101017.19
2023-04-26T07:51:18.396Z,101024.00
2023-04-26T07:53:44.967Z,101042.81
2023-04-26T07:56:11.372Z,101017.09
2023-04-26T07:58:39.420Z,101014.13
2023-04-26T08:01:06.452Z,101013.97
2023-04-26T08:03:33.209Z,101027.75
2023-04-26T08:06:00.034Z,101033.78
2023-04-26T08:08:29.432Z,101046.53
2023-04-26T08:10:55.951Z,101040.06
2023-04-26T08:13:22.455Z,101029.31
2023-04-26T08:15:48.855Z,101039.97
2023-04-26T08:18:15.222Z,101033.06
2023-04-26T08:20:41.730Z,101035.88
2023-04-26T08:23:08.101Z,101027.06
2023-04-26T08:25:34.945Z,101031.97
2023-04-26T08:28:02.004Z,101031.81
2023-04-26T08:30:28.550Z,101039.16
2023-04-26T08:32:54.945Z,101038.44
2023-04-26T08:35:21.638Z,101051.84
2023-04-26T08:37:48.031Z,101047.06
2023-04-26T08:40:14.445Z,101049.38
2023-04-26T08:42:42.370Z,101046.63
2023-04-26T08:45:11.378Z,101045.44
2023-04-26T08:47:50.026Z,101053.44
2023-04-26T08:50:23.179Z,101041.31
2023-04-26T08:52:51.636Z,101043.88
2023-04-26T08:55:20.173Z,101038.66
2023-04-26T08:57:48.000Z,101044.03
2023-04-26T09:00:15.918Z,101066.47
2023-04-26T09:02:51.190Z,101054.88
2023-04-26T09:05:27.157Z,101043.56
2023-04-26T09:07:56.992Z,101041.97
2023-04-26T09:10:23.984Z,101047.69
2023-04-26T09:12:54.191Z,101043.25
2023-04-26T09:15:22.727Z,101044.78
2023-04-26T09:17:51.361Z,101052.28
2023-04-26T09:20:22.340Z,101039.69
2023-04-26T09:22:51.389Z,101034.69
2023-04-26T09:25:26.116Z,101044.09
2023-04-26T09:27:52.525Z,101049.94
2023-04-26T09:30:20.657Z,101043.66
2023-04-26T09:33:05.387Z,101039.84
2023-04-26T09:35:42.616Z,101044.56
2023-04-26T09:38:16.539Z,101037.97
2023-04-26T09:40:46.055Z,101052.78
2023-04-26T09:43:22.780Z,101037.53
2023-04-26T09:45:55.711Z,101050.75
2023-04-26T09:48:34.490Z,101023.28
2023-04-26T09:51:03.846Z,101028.63
2023-04-26T09:53:37.046Z,101043.91
2023-04-26T09:56:14.882Z,101033.91
2023-04-26T09:58:47.413Z,101042.94
2023-04-26T10:01:19.216Z,101030.13
2023-04-26T10:03:46.804Z,101046.09
2023-04-26T10:06:13.533Z,101025.50
2023-04-26T10:08:40.125Z,101030.13
2023-04-26T10:11:13.056Z,101025.66
2023-04-26T10:13:41.560Z,101042.91
2023-04-26T10:16:09.780Z,101034.47
2023-04-26T10:18:36.329Z,101031.88
2023-04-26T10:21:28.632Z,101039.69
2023-04-26T10:23:56.604Z,101043.03
2023-04-26T10:26:54.377Z,101059.31
2023-04-26T10:29:21.330Z,101049.09
2023-04-26T10:32:02.691Z,101071.91
2023-04-26T10:34:31.259Z,101062.47
2023-04-26T10:37:14.345Z,101060.84
2023-04-26T10:39:42.424Z,101061.03
2023-04-26T10:42:30.347Z,101055.38
2023-04-26T10:44:58.423Z,101062.91
2023-04-26T10:47:34.310Z,101053.53
2023-04-26T10:50:13.177Z,101062.25
2023-04-26T10:53:05.656Z,101040.88
2023-04-26T10:55:40.727Z,101055.34
2023-04-26T10:58:32.918Z,101063.38
2023-04-26T11:01:11.793Z,101057.78
2023-04-26T11:03:38.576Z,101053.78
2023-04-26T11:06:15.641Z,101054.25
2023-04-26T11:08:43.120Z,101049.13
2023-04-26T11:11:13.559Z,101059.16
2023-04-26T11:13:41.869Z,101045.59
2023-04-26T11:16:13.025Z,101065.66
2023-04-26T11:18:42.176Z,101060.44
2023-04-26T11:21:09.225Z,101052.56
2023-04-26T11:23:36.464Z,101049.69
2023-04-26T11:26:08.375Z,101044.25
2023-04-26T11:28:39.141Z,101053.69
2023-04-26T11:31:07.345Z,101046.63
2023-04-26T11:33:36.920Z,101053.66
2023-04-26T11:36:03.895Z,101040.91
2023-04-26T11:38:30.344Z,101052.09
2023-04-26T11:40:58.791Z,101089.06
2023-04-26T11:43:38.325Z,101051.06
2023-04-26T11:46:05.989Z,101050.50
2023-04-26T11:48:34.659Z,101051.44
2023-04-26T11:51:03.758Z,101053.81
2023-04-26T11:53:41.900Z,101071.19
2023-04-26T11:56:17.777Z,101061.19
2023-04-26T11:58:53.989Z,101065.41
2023-04-26T12:01:21.848Z,101060.59
2023-04-26T12:03:50.913Z,101065.66
2023-04-26T12:06:18.006Z,101039.47
2023-04-26T12:08:50.503Z,101071.56
2023-04-26T12:11:17.406Z,101045.69
2023-04-26T12:13:45.147Z,101065.47
2023-04-26T12:16:25.458Z,101049.88
2023-04-26T12:18:53.337Z,101059.47
2023-04-26T12:21:20.168Z,101071.72
2023-04-26T12:23:49.524Z,101073.50
2023-04-26T12:26:15.920Z,101088.69
2023-04-26T12:28:42.672Z,101074.16
2023-04-26T12:31:09.084Z,101068.75
2023-04-26T12:33:35.982Z,101076.13
2023-04-26T12:36:10.085Z,101073.00
2023-04-26T12:38:36.915Z,101068.34
2023-04-26T12:41:03.614Z,101071.81
2023-04-26T12:43:30.023Z,101064.63
2023-04-26T12:45:56.653Z,101066.84
2023-04-26T12:48:23.282Z,101064.78
2023-04-26T12:50:51.219Z,101059.09
2023-04-26T12:53:18.609Z,101061.50
2023-04-26T12:55:45.127Z,101053.38
2023-04-26T12:58:11.780Z,101060.94
2023-04-26T13:00:38.326Z,101061.47
2023-04-26T13:03:04.831Z,101057.25
2023-04-26T13:05:32.290Z,101062.56
2023-04-26T13:08:01.869Z,101048.78
2023-04-26T13:10:28.316Z,101052.53
2023-04-26T13:12:54.717Z,101058.75
2023-04-26T13:15:21.593Z,101052.31
2023-04-26T13:17:48.113Z,101044.88
2023-04-26T13:20:14.510Z,101052.16
2023-04-26T13:22:42.487Z,101046.44
2023-04-26T13:25:10.162Z,101060.38
2023-04-26T13:27:36.876Z,101049.91
2023-04-26T13:30:03.584Z,101058.47
2023-04-26T13:32:30.022Z,101070.63
2023-04-26T13:34:56.876Z,101057.78
2023-04-26T13:37:23.807Z,101052.19
2023-04-26T13:39:50.331Z,101062.88
2023-04-26T13:42:17.554Z,101056.16
2023-04-26T13:44:44.034Z,101067.34
2023-04-26T13:47:10.860Z,101081.50
2023-04-26T13:49:40.998Z,101065.50
2023-04-26T13:52:07.417Z,101073.25
2023-04-26T13:54:35.968Z,101071.72
2023-04-26T13:57:02.826Z,101064.84
2023-04-26T13:59:29.346Z,101055.63
2023-04-26T14:01:58.382Z,101064.19
2023-04-26T14:04:26.199Z,101069.94
2023-04-26T14:06:53.033Z,101061.53
2023-04-26T14:09:19.456Z,101071.00
2023-04-26T14:11:49.341Z,101088.97
2023-04-26T14:14:20.641Z,101074.59
2023-04-26T14:16:47.002Z,101077.56
2023-04-26T14:19:15.365Z,101071.81
2023-04-26T14:21:42.100Z,101083.09
2023-04-26T14:24:08.876Z,101074.41
2023-04-26T14:26:35.284Z,101066.06
2023-04-26T14:29:02.117Z,101073.56
2023-04-26T14:31:30.095Z,101069.56
2023-04-26T14:33:56.942Z,101065.03
2023-04-26T14:36:23.490Z,101060.66
2023-04-26T14:38:49.911Z,101073.28
2023-04-26T14:41:17.732Z,101068.59
2023-04-26T14:43:46.048Z,101073.66
2023-04-26T14:46:13.289Z,101071.28
2023-04-26T14:48:39.934Z,101074.69
2023-04-26T14:51:06.550Z,101074.44
2023-04-26T14:53:33.060Z,101077.34
2023-04-26T14:56:00.677Z,101076.53
2023-04-26T14:58:27.388Z,101076.53
2023-04-26T15:00:54.200Z,101067.28
2023-04-26T15:03:21.011Z,101081.63
2023-04-26T15:05:47.534Z,101070.69
2023-04-26T15:08:13.894Z,101066.47
2023-04-26T15:10:40.488Z,101056.47
2023-04-26T15:13:07.182Z,101069.72
2023-04-26T15:15:34.024Z,101057.06
2023-04-26T15:18:00.892Z,101070.56
2023-04-26T15:20:27.476Z,101065.75
2023-04-26T15:22:53.874Z,101060.81
2023-04-26T15:25:20.258Z,101074.13
2023-04-26T15:27:46.979Z,101064.94
2023-04-26T15:30:13.637Z,101059.13
2023-04-26T15:32:40.021Z,101066.59
2023-04-26T15:35:07.414Z,101073.41
2023-04-26T15:37:37.093Z,101066.19
2023-04-26T15:40:05.952Z,101074.44
2023-04-26T15:42:32.339Z,101073.38
2023-04-26T15:44:58.721Z,101085.25
2023-04-26T15:47:25.150Z,101071.50
2023-04-26T15:49:51.718Z,101069.88
2023-04-26T15:52:18.115Z,101075.72
2023-04-26T15:54:44.494Z,101071.50
2023-04-26T15:57:10.908Z,101082.25
2023-04-26T15:59:37.269Z,101097.16
2023-04-26T16:02:05.486Z,101088.94
2023-04-26T16:04:32.241Z,101098.84
2023-04-26T16:06:58.705Z,101084.09
2023-04-26T16:09:25.936Z,101088.91
2023-04-26T16:11:52.681Z,101085.41
2023-04-26T16:14:19.081Z,101084.78
2023-04-26T16:16:46.052Z,101087.41
2023-04-26T16:19:12.614Z,101107.25
2023-04-26T16:21:40.157Z,101098.59
2023-04-26T16:24:09.166Z,101098.63
2023-04-26T16:26:36.098Z,101102.47
2023-04-26T16:29:04.157Z,101106.13
2023-04-26T16:31:32.229Z,101093.13
2023-04-26T16:33:59.003Z,101086.63
2023-04-26T16:36:25.549Z,101079.81
2023-04-26T16:38:51.916Z,101075.97
2023-04-26T16:41:18.289Z,101082.88
2023-04-26T16:43:44.801Z,101083.03
2023-04-26T16:46:11.620Z,101072.97
2023-04-26T16:48:38.712Z,101082.16
2023-04-26T16:51:07.628Z,101089.06
2023-04-26T16:53:34.509Z,101086.94
2023-04-26T16:56:00.954Z,101088.59
2023-04-26T16:58:27.396Z,101089.56
2023-04-26T17:00:53.804Z,101090.19
2023-04-26T17:03:20.621Z,101091.03
2023-04-26T17:05:48.542Z,101083.97
2023-04-26T17:08:16.609Z,101099.28
2023-04-26T17:10:44.101Z,101094.91
2023-04-26T17:13:13.400Z,101092.41
2023-04-26T17:15:41.146Z,101102.72
2023-04-26T17:18:08.018Z,101105.66
2023-04-26T17:20:35.452Z,101099.59
2023-04-26T17:23:02.996Z,101098.63
2023-04-26T17:25:29.631Z,101109.84
2023-04-26T17:27:56.334Z,101105.97
2023-04-26T17:30:22.993Z,101119.25
2023-04-26T17:32:49.516Z,101115.53
2023-04-26T17:35:16.199Z,101110.19
2023-04-26T17:37:42.687Z,101118.00
2023-04-26T17:40:09.994Z,101119.84
2023-04-26T17:42:36.386Z,101109.00
2023-04-26T17:45:05.014Z,101117.56
2023-04-26T17:47:31.546Z,101121.03
2023-04-26T17:49:58.533Z,101120.72
2023-04-26T17:52:24.984Z,101127.53
2023-04-26T17:54:51.347Z,101127.56
2023-04-26T17:57:20.108Z,101129.19
2023-04-26T17:59:46.612Z,101153.50
2023-04-26T18:02:13.081Z,101139.63
2023-04-26T18:04:39.848Z,101130.84
2023-04-26T18:07:06.548Z,101132.78
2023-04-26T18:09:33.328Z,101136.53
2023-04-26T18:11:59.743Z,101136.13
2023-04-26T18:14:26.601Z,101137.28
2023-04-26T18:16:52.996Z,101139.81
2023-04-26T18:19:19.432Z,101139.94
2023-04-26T18:21:45.829Z,101142.63
2023-04-26T18:24:12.188Z,101150.22
2023-04-26T18:26:39.219Z,101143.78
2023-04-26T18:29:07.451Z,101152.84
2023-04-26T18:31:34.014Z,101152.97
2023-04-26T18:34:00.441Z,101156.44
2023-04-26T18:36:27.181Z,101163.16
2023-04-26T18:38:53.583Z,101165.19
2023-04-26T18:41:19.953Z,101162.28
2023-04-26T18:43:46.323Z,101165.34
2023-04-26T18:46:12.713Z,101162.47
2023-04-26T18:48:39.099Z,101168.41
2023-04-26T18:51:05.559Z,101169.91
2023-04-26T18:53:31.944Z,101172.88
2023-04-26T18:55:58.386Z,101177.53
2023-04-26T18:58:24.803Z,101175.47
2023-04-26T19:00:51.220Z,101183.13
2023-04-26T19:03:18.519Z,101180.78
2023-04-26T19:05:45.165Z,101192.47
2023-04-26T19:08:11.724Z,101182.56
2023-04-26T19:10:38.082Z,101194.13
2023-04-26T19:13:04.442Z,101189.59
2023-04-26T19:15:31.071Z,101193.81
2023-04-26T19:17:57.509Z,101190.91
2023-04-26T19:20:25.781Z,101191.03
2023-04-26T19:22:52.399Z,101194.72
2023-04-26T19:25:22.892Z,101198.22
2023-04-26T19:27:50.142Z,101202.97
2023-04-26T19:30:16.555Z,101200.75
2023-04-26T19:32:42.970Z,101198.06
2023-04-26T19:35:09.853Z,101197.53
2023-04-26T19:37:36.446Z,101200.09
2023-04-26T19:40:05.986Z,101198.78
2023-04-26T19:42:32.392Z,101196.84
2023-04-26T19:44:58.738Z,101202.19
2023-04-26T19:47:25.268Z,101198.94
2023-04-26T19:49:53.044Z,101199.56
2023-04-26T19:52:19.713Z,101202.06
2023-04-26T19:54:46.089Z,101205.50
2023-04-26T19:57:12.456Z,101200.72
2023-04-26T19:59:38.864Z,101219.84
2023-04-26T20:02:06.705Z,101209.88
2023-04-26T20:04:33.295Z,101214.47
2023-04-26T20:06:59.751Z,101218.78
2023-04-26T20:09:26.157Z,101211.66
2023-04-26T20:11:52.878Z,101213.53
2023-04-26T20:14:19.257Z,101210.31
2023-04-26T20:16:45.716Z,101223.53
2023-04-26T20:19:12.164Z,101226.13
2023-04-26T20:21:38.576Z,101214.84
2023-04-26T20:24:05.633Z,101217.97
2023-04-26T20:26:32.039Z,101224.88
2023-04-26T20:28:58.441Z,101217.59
2023-04-26T20:31:24.883Z,101222.13
2023-04-26T20:33:51.451Z,101228.59
2023-04-26T20:36:18.143Z,101225.84
2023-04-26T20:38:44.528Z,101235.69
2023-04-26T20:41:10.907Z,101232.16
2023-04-26T20:43:37.265Z,101231.06
2023-04-26T20:46:03.703Z,101225.25
2023-04-26T20:48:30.122Z,101228.41
2023-04-26T20:50:58.621Z,101223.34
2023-04-26T20:53:25.000Z,101234.22
2023-04-26T20:55:52.565Z,101227.94
2023-04-26T20:58:19.069Z,101233.41
2023-04-26T21:00:45.413Z,101229.47
2023-04-26T21:03:12.486Z,101231.81
2023-04-26T21:05:38.989Z,101231.81
2023-04-26T21:08:05.549Z,101228.75
2023-04-26T21:10:31.902Z,101229.47
2023-04-26T21:12:58.286Z,101228.34
2023-04-26T21:15:24.663Z,101224.53
2023-04-26T21:17:51.057Z,101224.97
2023-04-26T21:20:17.618Z,101225.88
2023-04-26T21:22:43.979Z,101229.66
2023-04-26T21:25:12.804Z,101235.28
2023-04-26T21:27:39.168Z,101226.53
2023-04-26T21:30:06.233Z,101227.47
2023-04-26T21:32:32.615Z,101226.47
2023-04-26T21:34:59.013Z,101229.47
2023-04-26T21:37:25.874Z,101231.22
2023-04-26T21:39:52.235Z,101236.69
2023-04-26T21:42:18.648Z,101237.38
2023-04-26T21:44:45.018Z,101236.75
2023-04-26T21:47:11.445Z,101233.09
2023-04-26T21:49:39.520Z,101239.63
2023-04-26T21:52:05.922Z,101245.59
2023-04-26T21:54:32.265Z,101243.47
2023-04-26T21:56:58.639Z,101240.78
2023-04-26T21:59:24.975Z,101242.81
2023-04-26T22:01:51.433Z,101244.34
2023-04-26T22:04:17.974Z,101240.44
2023-04-26T22:06:44.512Z,101252.31
2023-04-26T22:09:11.517Z,101245.88
2023-04-26T22:11:38.134Z,101248.47
2023-04-26T22:14:04.511Z,101248.81
2023-04-26T22:16:31.861Z,101250.75
2023-04-26T22:18:58.342Z,101252.47
2023-04-26T22:21:24.728Z,101259.03
2023-04-26T22:23:51.420Z,101273.34
2023-04-26T22:26:17.867Z,101263.91
2023-04-26T22:28:44.221Z,101270.25
2023-04-26T22:31:10.581Z,101269.69
2023-04-26T22:33:37.107Z,101269.53
2023-04-26T22:36:04.172Z,101274.69
2023-04-26T22:38:30.514Z,101280.31
2023-04-26T22:40:56.873Z,101279.41
2023-04-26T22:43:23.396Z,101281.50
2023-04-26T22:45:49.777Z,101286.50
2023-04-26T22:48:16.145Z,101288.22
2023-04-26T22:50:42.524Z,101291.38
2023-04-26T22:53:08.885Z,101290.97
2023-04-26T22:55:35.871Z,101292.09
2023-04-26T22:58:02.229Z,101285.06
2023-04-26T23:00:28.618Z,101288.28
2023-04-26T23:02:55.081Z,101289.28
2023-04-26T23:05:21.517Z,101283.25
2023-04-26T23:07:47.900Z,101290.94
2023-04-26T23:10:14.243Z,101286.72
2023-04-26T23:12:41.223Z,101294.28
2023-04-26T23:15:08.368Z,101298.75
2023-04-26T23:17:34.902Z,101308.88
2023-04-26T23:20:01.499Z,101299.03
2023-04-26T23:22:28.200Z,101303.91
2023-04-26T23:24:54.600Z,101296.63
2023-04-26T23:27:21.146Z,101297.47
2023-04-26T23:29:49.914Z,101311.69
2023-04-26T23:32:16.333Z,101306.13
2023-04-26T23:34:42.693Z,101304.75
2023-04-26T23:37:09.087Z,101308.81
2023-04-26T23:39:35.849Z,101303.38
2023-04-26T23:42:02.593Z,101300.53
2023-04-26T23:44:29.058Z,101307.63
2023-04-26T23:46:55.552Z,101306.63
2023-04-26T23:49:22.107Z,101297.28
2023-04-26T23:51:48.581Z,101296.81
2023-04-26T23:54:14.924Z,101296.47
2023-04-26T23:56:41.318Z,101295.50
2023-04-26T23:59:07.767Z,101296.72
